Terminal Aerodrome Forecast
Issued by NWS

Home | Current Version | Previous Version | Text Only | Print | Product List | Glossary On
Versions: 1 2 3 4 5 6 7 8 9 10 11 12 13 14 15 16 17 18 19 20 21 22 23
000
FTUS43 KGRR 101019 AAA
TAFJXN
TAF AMD
KJXN 101019Z 1010/1106 25010KT 5SM -SHSN OVC035
      TEMPO 1010/1014 1 1/2SM -SN BKN015
     FM101400 26009KT 3SM -SN OVC020
     FM102100 23006KT P6SM OVC040=

USA.gov is the U.S. government's official web portal to all federal, state and local government web resources and services.